Time;durP1;ratioP1;P1;durP2;ratioP2;P2;SDS_P1;SDS_P2;PMS_P1;PMS_P2;Temp;Humidity;BMP_temperature;BMP_pressure;BME280_temperature;BME280_humidity;BME280_pressure;Samples;Min_cycle;Max_cycle;Signal;HPM_P1;HPM_P2
2024/02/02 00:02:03;;;;;;;4.53;4.25;;;;;;;1.83;100.00;100975.94;4881973;29;20049;-77
2024/02/02 00:04:29;;;;;;;3.55;3.40;;;;;;;2.18;100.00;101049.06;4885436;29;20087;-74
2024/02/02 00:06:54;;;;;;;2.05;1.85;;;;;;;2.15;100.00;101064.44;4884723;29;20159;-75
2024/02/02 00:09:20;;;;;;;5.13;4.88;;;;;;;1.63;100.00;100958.63;4879571;29;20075;-76
2024/02/02 00:11:47;;;;;;;2.45;2.35;;;;;;;2.11;100.00;101040.16;4882619;29;20052;-75
2024/02/02 00:14:13;;;;;;;2.38;2.17;;;;;;;1.43;100.00;100953.47;4865780;29;20068;-73
2024/02/02 00:16:38;;;;;;;2.90;2.80;;;;;;;1.90;100.00;101027.13;4882457;29;20276;-74
2024/02/02 00:19:04;;;;;;;11.98;11.13;;;;;;;1.91;100.00;101030.59;4889527;29;20584;-74
2024/02/02 00:21:29;;;;;;;2.40;2.20;;;;;;;1.91;100.00;101015.06;4883304;29;20162;-73
2024/02/02 00:23:55;;;;;;;1.13;1.13;;;;;;;2.08;100.00;101044.28;4880514;29;20052;-74
2024/02/02 00:26:20;;;;;;;0.60;0.60;;;;;;;2.02;100.00;101042.31;4886751;29;20053;-73
2024/02/02 00:28:46;;;;;;;3.28;3.13;;;;;;;1.28;100.00;100978.59;4872946;29;20100;-75
2024/02/02 00:31:11;;;;;;;1.60;1.50;;;;;;;1.47;100.00;100977.72;4903589;29;20044;-73
2024/02/02 00:33:37;;;;;;;3.08;2.97;;;;;;;1.85;100.00;101048.44;4880833;29;20097;-75
2024/02/02 00:36:03;;;;;;;0.60;0.60;;;;;;;1.31;100.00;101045.06;4889256;29;20852;-72
2024/02/02 00:38:29;;;;;;;11.98;11.02;;;;;;;0.93;100.00;101031.19;4888549;29;20049;-73
2024/02/02 00:40:54;;;;;;;1.33;1.23;;;;;;;1.21;100.00;101000.69;4884198;29;20052;-73
2024/02/02 00:43:20;;;;;;;2.63;2.53;;;;;;;1.52;100.00;101038.31;4882492;29;20060;-73
2024/02/02 00:45:46;;;;;;;10.73;7.03;;;;;;;1.09;100.00;100948.41;4882845;29;20065;-73
2024/02/02 00:48:11;;;;;;;3.45;3.25;;;;;;;0.77;100.00;101025.28;4888233;29;20056;-72
2024/02/02 00:50:37;;;;;;;2.72;2.63;;;;;;;0.43;100.00;100959.88;4883629;29;20044;-73
2024/02/02 00:53:02;;;;;;;0.60;0.60;;;;;;;1.33;100.00;101058.94;4886850;29;20064;-74
2024/02/02 00:55:28;;;;;;;2.50;2.30;;;;;;;1.15;100.00;101052.09;4867063;29;20786;-73
2024/02/02 00:57:54;;;;;;;6.07;5.60;;;;;;;1.49;100.00;101048.50;4875819;29;20383;-73
2024/02/02 01:00:19;;;;;;;5.43;5.10;;;;;;;0.93;100.00;100933.00;4874338;29;20256;-74
2024/02/02 01:02:47;;;;;;;0.50;0.50;;;;;;;1.09;100.00;100948.41;4865314;29;20049;-77
2024/02/02 01:05:14;;;;;;;1.23;1.15;;;;;;;1.71;100.00;101052.09;4861728;29;20429;-74
2024/02/02 01:07:40;;;;;;;2.53;2.35;;;;;;;1.57;100.00;101028.16;4853019;29;20060;-75
2024/02/02 01:10:06;;;;;;;1.10;1.00;;;;;;;1.70;100.00;101040.88;4892716;29;20036;-75
2024/02/02 01:12:33;;;;;;;3.42;3.22;;;;;;;1.15;100.00;100946.13;4874222;29;20140;-74
2024/02/02 01:14:58;;;;;;;5.05;4.75;;;;;;;1.75;100.00;101022.97;4869147;29;20045;-74
2024/02/02 01:17:24;;;;;;;0.88;0.88;;;;;;;1.20;100.00;100920.50;4875903;29;20076;-74
2024/02/02 01:19:49;;;;;;;12.45;11.57;;;;;;;1.85;100.00;101031.22;4879722;29;20675;-74
2024/02/02 01:22:15;;;;;;;3.33;3.03;;;;;;;1.63;100.00;101016.41;4875549;29;20037;-76
2024/02/02 01:24:41;;;;;;;12.38;11.73;;;;;;;1.14;100.00;100958.97;4877057;29;20068;-75
2024/02/02 01:27:06;;;;;;;1.95;1.58;;;;;;;1.46;100.00;101035.44;4877101;29;20055;-75
2024/02/02 01:29:33;;;;;;;5.47;5.18;;;;;;;1.71;100.00;101026.22;4860813;29;20102;-74
2024/02/02 01:31:59;;;;;;;2.05;1.95;;;;;;;1.81;100.00;101028.44;4872260;29;20080;-74
2024/02/02 01:34:25;;;;;;;5.28;4.88;;;;;;;1.73;100.00;101014.25;4877829;29;20940;-74
2024/02/02 01:36:52;;;;;;;4.03;3.83;;;;;;;1.63;100.00;100984.50;4872219;29;20123;-74
2024/02/02 01:39:17;;;;;;;15.82;14.45;;;;;;;1.28;100.00;100924.31;4880554;29;20176;-74
2024/02/02 01:41:45;;;;;;;2.38;2.17;;;;;;;1.39;100.00;100946.38;4868794;29;20140;-74
2024/02/02 01:44:11;;;;;;;1.65;1.38;;;;;;;1.28;100.00;101022.53;4877690;29;20045;-73
2024/02/02 01:46:36;;;;;;;5.03;4.80;;;;;;;0.87;100.00;100928.44;4876455;29;20763;-72
2024/02/02 01:49:02;;;;;;;5.05;4.70;;;;;;;1.57;100.00;101018.75;4857592;29;20147;-73
2024/02/02 01:51:27;;;;;;;4.90;4.65;;;;;;;1.61;100.00;101004.22;4875141;29;20049;-73
2024/02/02 01:53:54;;;;;;;1.95;1.85;;;;;;;1.35;100.00;100948.75;4880625;29;20105;-73
2024/02/02 01:56:19;;;;;;;5.10;4.85;;;;;;;1.66;100.00;101001.06;4888931;29;20048;-73
2024/02/02 01:58:48;;;;;;;1.50;1.40;;;;;;;1.10;100.00;100947.63;4889611;29;20176;-74
2024/02/02 02:01:13;;;;;;;2.05;1.95;;;;;;;1.69;100.00;101024.47;4890973;29;20028;-77
2024/02/02 02:03:39;;;;;;;1.58;1.48;;;;;;;1.17;100.00;100904.81;4907117;29;20374;-73
2024/02/02 02:06:05;;;;;;;1.50;1.40;;;;;;;1.46;100.00;100944.94;4888887;29;20147;-73
2024/02/02 02:08:30;;;;;;;5.00;4.55;;;;;;;1.39;100.00;100914.47;4889133;29;20064;-73
2024/02/02 02:10:57;;;;;;;2.88;2.67;;;;;;;1.86;100.00;101003.66;4874485;29;20044;-73
2024/02/02 02:13:26;;;;;;;7.28;4.18;;;;;;;1.97;100.00;101014.47;4891498;29;20714;-75
2024/02/02 02:15:53;;;;;;;9.40;8.93;;;;;;;1.38;100.00;100900.66;4893299;29;20024;-73
2024/02/02 02:18:19;;;;;;;6.28;5.97;;;;;;;1.01;100.00;100823.16;4891064;29;20355;-73
2024/02/02 02:20:49;;;;;;;1.60;1.55;;;;;;;1.60;100.00;100920.59;4886012;29;20086;-73
2024/02/02 02:23:15;;;;;;;1.45;1.30;;;;;;;1.42;100.00;100948.19;4886111;29;20039;-72
2024/02/02 02:25:42;;;;;;;2.28;1.65;;;;;;;2.01;100.00;101030.19;4873507;29;20052;-72
2024/02/02 02:28:08;;;;;;;4.45;4.13;;;;;;;1.52;100.00;101040.00;4889941;29;20031;-72
2024/02/02 02:30:33;;;;;;;9.82;9.05;;;;;;;1.11;100.00;100951.97;4889391;29;20044;-72
2024/02/02 02:32:59;;;;;;;3.90;2.50;;;;;;;1.96;100.00;101036.88;4883236;29;20061;-73
2024/02/02 02:35:24;;;;;;;3.22;2.92;;;;;;;1.65;100.00;101019.97;4884825;29;20685;-73
2024/02/02 02:37:50;;;;;;;3.05;2.85;;;;;;;1.70;100.00;101043.44;4883794;29;20564;-74
2024/02/02 02:40:15;;;;;;;13.50;12.48;;;;;;;1.36;100.00;101030.63;4886392;29;20677;-73
2024/02/02 02:42:41;;;;;;;2.85;2.70;;;;;;;0.73;100.00;100883.88;4883503;29;20047;-74
2024/02/02 02:45:07;;;;;;;10.73;9.88;;;;;;;1.45;100.00;101050.09;4888664;29;20052;-72
2024/02/02 02:47:32;;;;;;;3.55;3.38;;;;;;;1.14;100.00;101029.63;4884864;29;20116;-72
2024/02/02 02:49:58;;;;;;;5.03;4.72;;;;;;;1.25;100.00;100984.50;4880425;29;20063;-73
2024/02/02 02:52:23;;;;;;;3.65;3.38;;;;;;;1.30;100.00;100970.91;4886344;29;20144;-74
2024/02/02 02:54:49;;;;;;;3.63;3.42;;;;;;;1.50;100.00;100990.81;4886639;29;20549;-73
2024/02/02 02:57:14;;;;;;;3.13;2.83;;;;;;;1.48;100.00;101003.69;4885954;29;20524;-72
2024/02/02 02:59:40;;;;;;;7.97;7.53;;;;;;;1.64;100.00;101077.69;4887041;29;20049;-72
2024/02/02 03:02:05;;;;;;;26.92;19.40;;;;;;;1.93;100.00;101078.13;4886302;29;20048;-75
2024/02/02 03:04:31;;;;;;;1.75;1.65;;;;;;;2.07;100.00;101078.78;4888589;29;20044;-73
2024/02/02 03:06:56;;;;;;;2.90;2.70;;;;;;;1.55;100.00;100980.69;4873727;29;20813;-73
2024/02/02 03:09:22;;;;;;;4.13;3.92;;;;;;;2.11;100.00;101071.22;4882695;29;20052;-74
2024/02/02 03:11:48;;;;;;;2.92;2.75;;;;;;;2.00;100.00;101043.97;4888717;29;20064;-74
2024/02/02 03:14:14;;;;;;;0.82;0.82;;;;;;;1.84;100.00;100989.75;4889402;29;20540;-73
2024/02/02 03:16:39;;;;;;;23.60;20.30;;;;;;;2.24;100.00;101057.09;4868812;29;20191;-73
2024/02/02 03:19:05;;;;;;;9.98;9.38;;;;;;;2.26;100.00;101063.22;4874448;29;20039;-75
2024/02/02 03:21:30;;;;;;;2.88;2.67;;;;;;;2.18;100.00;101049.06;4882340;29;20049;-73
2024/02/02 03:23:56;;;;;;;7.40;6.68;;;;;;;1.95;100.00;100979.88;4886195;29;20041;-73
2024/02/02 03:26:22;;;;;;;3.55;3.35;;;;;;;2.27;100.00;101077.06;4885417;29;20051;-73
2024/02/02 03:28:47;;;;;;;7.70;7.22;;;;;;;2.10;100.00;101020.25;4890738;29;20048;-73
2024/02/02 03:31:13;;;;;;;4.07;3.75;;;;;;;2.43;100.00;101084.69;4889305;29;20516;-73
2024/02/02 03:33:38;;;;;;;8.30;7.68;;;;;;;1.72;100.00;100971.97;4883456;29;20041;-73
2024/02/02 03:36:04;;;;;;;6.97;6.53;;;;;;;1.66;100.00;101005.31;4887330;29;20064;-73
2024/02/02 03:38:30;;;;;;;31.85;13.85;;;;;;;2.16;100.00;101070.53;4889017;29;20060;-73
2024/02/02 03:40:55;;;;;;;4.32;4.03;;;;;;;1.88;100.00;100991.66;4887637;29;20041;-73
2024/02/02 03:43:21;;;;;;;9.43;8.63;;;;;;;1.93;100.00;101022.91;4889019;29;20036;-73
2024/02/02 03:45:47;;;;;;;10.65;10.10;;;;;;;2.37;100.00;101088.72;4887257;29;20533;-73
2024/02/02 03:48:12;;;;;;;6.32;5.95;;;;;;;2.02;100.00;101099.25;4884334;29;20635;-73
2024/02/02 03:50:38;;;;;;;1.52;1.45;;;;;;;1.89;100.00;101048.63;4885229;29;20765;-73
2024/02/02 03:53:03;;;;;;;3.10;2.90;;;;;;;2.14;100.00;101090.28;4888349;29;20052;-73
2024/02/02 03:55:29;;;;;;;5.72;5.30;;;;;;;2.25;100.00;101125.31;4884921;29;20052;-73
2024/02/02 03:57:55;;;;;;;3.72;3.53;;;;;;;2.31;100.00;101130.75;4883297;29;20049;-73
2024/02/02 04:00:20;;;;;;;8.38;6.57;;;;;;;1.78;100.00;101135.25;4887054;29;20617;-73
2024/02/02 04:02:47;;;;;;;15.43;14.25;;;;;;;1.27;100.00;101013.91;4881653;29;20049;-73
2024/02/02 04:05:12;;;;;;;8.00;7.53;;;;;;;2.03;100.00;101126.91;4870356;29;20057;-72
2024/02/02 04:07:38;;;;;;;2.80;2.60;;;;;;;1.86;100.00;101094.22;4885136;29;20061;-73
2024/02/02 04:10:05;;;;;;;7.68;7.25;;;;;;;1.65;100.00;101052.72;4890943;29;20485;-73
2024/02/02 04:12:30;;;;;;;0.80;0.73;;;;;;;1.96;100.00;101098.09;4884686;29;20569;-74
2024/02/02 04:14:56;;;;;;;2.75;2.65;;;;;;;1.87;100.00;101051.97;4867531;29;20060;-72
2024/02/02 04:17:21;;;;;;;8.65;8.07;;;;;;;2.06;100.00;101116.72;4884417;29;20051;-73
2024/02/02 04:19:47;;;;;;;3.85;3.65;;;;;;;2.05;100.00;101120.09;4883775;29;20049;-75
2024/02/02 04:22:16;;;;;;;4.25;3.92;;;;;;;2.30;100.00;101145.41;4885101;29;20484;-71
2024/02/02 04:24:45;;;;;;;1.10;1.08;;;;;;;2.04;100.00;101084.69;4881560;29;20052;-72
2024/02/02 04:27:10;;;;;;;2.90;2.78;;;;;;;2.20;100.00;101147.50;4885035;29;20112;-75
2024/02/02 04:29:36;;;;;;;3.75;2.03;;;;;;;1.31;100.00;101004.59;4880908;29;20076;-73
2024/02/02 04:32:02;;;;;;;2.75;2.55;;;;;;;2.08;100.00;101155.59;4886709;29;20132;-73
2024/02/02 04:34:28;;;;;;;2.72;2.50;;;;;;;2.02;100.00;101150.16;4884960;29;20045;-73
2024/02/02 04:36:53;;;;;;;3.55;3.30;;;;;;;1.39;100.00;101083.41;4883693;29;20045;-73
2024/02/02 04:39:19;;;;;;;0.47;0.47;;;;;;;1.84;100.00;101138.09;4886660;29;20801;-74
2024/02/02 04:41:44;;;;;;;6.32;5.95;;;;;;;1.84;100.00;101093.25;4888202;29;20049;-74
2024/02/02 04:44:10;;;;;;;4.15;3.95;;;;;;;2.33;100.00;101188.69;4886952;29;20493;-74
2024/02/02 04:46:35;;;;;;;2.55;2.40;;;;;;;1.39;100.00;101096.31;4884841;29;20041;-74
2024/02/02 04:49:01;;;;;;;28.80;26.05;;;;;;;1.87;100.00;101215.00;4891287;29;20036;-73
2024/02/02 04:51:26;;;;;;;7.75;7.03;;;;;;;1.50;100.00;101112.38;4893254;29;20176;-74
2024/02/02 04:53:52;;;;;;;3.67;3.47;;;;;;;1.96;100.00;101222.31;4884151;29;20566;-73
2024/02/02 04:56:18;;;;;;;19.77;12.63;;;;;;;1.89;100.00;101228.91;4887592;29;20509;-73
2024/02/02 04:58:43;;;;;;;10.63;9.93;;;;;;;1.26;100.00;101148.25;4892359;29;20052;-74
2024/02/02 05:01:09;;;;;;;3.00;2.85;;;;;;;1.90;100.00;101262.63;4894862;29;20037;-73
2024/02/02 05:03:34;;;;;;;1.80;1.67;;;;;;;1.50;100.00;101220.97;4891484;29;20044;-73
2024/02/02 05:06:00;;;;;;;5.78;3.63;;;;;;;1.69;100.00;101259.88;4892264;29;20136;-74
2024/02/02 05:08:25;;;;;;;1.13;1.05;;;;;;;1.79;100.00;101248.25;4892522;29;20055;-73
2024/02/02 05:10:51;;;;;;;1.45;1.35;;;;;;;2.06;100.00;101266.84;4891231;29;20060;-74
2024/02/02 05:13:16;;;;;;;6.65;6.22;;;;;;;1.88;100.00;101259.06;4889597;29;20067;-76
2024/02/02 05:15:42;;;;;;;11.98;11.32;;;;;;;1.88;100.00;101272.00;4890813;29;20045;-73
2024/02/02 05:18:08;;;;;;;13.93;12.65;;;;;;;1.60;100.00;101268.88;4885206;29;20044;-74
2024/02/02 05:20:33;;;;;;;9.73;8.77;;;;;;;1.89;100.00;101260.81;4889071;29;20366;-73
2024/02/02 05:22:59;;;;;;;6.93;6.53;;;;;;;1.56;100.00;101186.75;4880811;29;20083;-75
2024/02/02 05:25:25;;;;;;;4.65;4.25;;;;;;;1.54;100.00;101178.03;4885404;29;20048;-73
2024/02/02 05:27:50;;;;;;;6.32;5.97;;;;;;;2.24;100.00;101294.41;4891669;29;20037;-74
2024/02/02 05:30:16;;;;;;;17.65;9.52;;;;;;;2.16;100.00;101309.59;4888095;29;20045;-73
2024/02/02 05:32:41;;;;;;;2.00;1.30;;;;;;;2.11;100.00;101308.47;4890560;29;20079;-75
2024/02/02 05:35:07;;;;;;;8.68;8.02;;;;;;;1.93;100.00;101294.63;4892342;29;20056;-74
2024/02/02 05:37:33;;;;;;;6.65;4.15;;;;;;;2.01;100.00;101291.59;4889010;29;21337;-75
2024/02/02 05:39:59;;;;;;;21.33;9.98;;;;;;;1.31;100.00;101200.16;4891619;29;20048;-74
2024/02/02 05:42:24;;;;;;;19.15;17.27;;;;;;;1.99;100.00;101306.19;4890932;29;20053;-74
2024/02/02 05:44:50;;;;;;;3.72;3.20;;;;;;;1.07;100.00;101216.22;4871445;29;20052;-75
2024/02/02 05:47:15;;;;;;;3.55;3.35;;;;;;;0.94;100.00;101222.47;4867919;29;20449;-75
2024/02/02 05:49:41;;;;;;;5.82;5.45;;;;;;;1.52;100.00;101317.59;4855067;29;20153;-73
2024/02/02 05:52:09;;;;;;;9.43;8.93;;;;;;;1.22;100.00;101271.28;4892404;29;20334;-73
2024/02/02 05:54:35;;;;;;;3.45;3.13;;;;;;;1.71;100.00;101337.56;4884391;29;20049;-71
2024/02/02 05:57:01;;;;;;;2.22;2.08;;;;;;;1.82;100.00;101335.50;4886418;29;20087;-72
2024/02/02 05:59:27;;;;;;;1.25;0.95;;;;;;;1.77;100.00;101308.50;4882648;29;20152;-74
2024/02/02 06:01:52;;;;;;;3.75;3.55;;;;;;;1.78;100.00;101339.66;4888539;29;20516;-73
2024/02/02 06:04:18;;;;;;;4.78;3.03;;;;;;;1.74;100.00;101311.84;4887488;29;20096;-72
2024/02/02 06:06:43;;;;;;;3.22;3.03;;;;;;;1.87;100.00;101334.03;4888530;29;20055;-72
2024/02/02 06:09:13;;;;;;;5.88;5.57;;;;;;;1.78;100.00;101325.78;4890749;29;20048;-71
2024/02/02 06:11:39;;;;;;;15.90;14.80;;;;;;;1.87;100.00;101336.59;4892268;29;20044;-71
2024/02/02 06:14:05;;;;;;;5.78;4.55;;;;;;;1.86;100.00;101343.50;4890188;29;20509;-71
2024/02/02 06:16:30;;;;;;;6.07;5.65;;;;;;;1.68;100.00;101351.19;4892580;29;20028;-70
2024/02/02 06:18:56;;;;;;;5.70;5.40;;;;;;;1.77;100.00;101344.75;4896013;29;20367;-70
2024/02/02 06:21:21;;;;;;;13.52;12.27;;;;;;;1.35;100.00;101246.06;4897855;29;20127;-71
2024/02/02 06:23:47;;;;;;;2.72;2.58;;;;;;;1.86;100.00;101356.44;4886584;29;20052;-70
2024/02/02 06:26:12;;;;;;;2.25;2.15;;;;;;;1.98;100.00;101352.69;4891854;29;20056;-71
2024/02/02 06:28:39;;;;;;;2.65;2.50;;;;;;;1.90;100.00;101347.13;4873678;29;20047;-71
2024/02/02 06:31:05;;;;;;;0.70;0.70;;;;;;;1.68;100.00;101273.59;4890719;29;20035;-70
2024/02/02 06:33:30;;;;;;;19.80;9.13;;;;;;;1.79;100.00;101293.97;4892591;29;20056;-71
2024/02/02 06:35:56;;;;;;;22.13;16.20;;;;;;;1.72;100.00;101256.53;4890415;29;20041;-72
2024/02/02 06:38:22;;;;;;;8.65;8.18;;;;;;;1.86;100.00;101270.16;4889381;29;20059;-71
2024/02/02 06:40:47;;;;;;;6.30;5.90;;;;;;;2.08;100.00;101323.84;4890370;29;20053;-74
2024/02/02 06:43:13;;;;;;;9.40;8.77;;;;;;;2.42;100.00;101364.34;4890010;29;20613;-71
2024/02/02 06:45:39;;;;;;;1.98;1.88;;;;;;;2.32;100.00;101350.06;4888443;29;20658;-71
2024/02/02 06:48:06;;;;;;;1.08;1.08;;;;;;;2.27;100.00;101323.94;4873549;29;20060;-71
2024/02/02 06:50:31;;;;;;;2.78;2.58;;;;;;;2.59;100.00;101385.88;4879097;29;20472;-70
2024/02/02 06:52:57;;;;;;;0.30;0.30;;;;;;;2.52;100.00;101363.97;4888698;29;20088;-70
2024/02/02 06:55:25;;;;;;;3.70;3.50;;;;;;;2.60;100.00;101370.41;4874103;29;20169;-71
2024/02/02 06:57:50;;;;;;;1.67;1.58;;;;;;;2.36;100.00;101307.06;4888336;29;20132;-70
2024/02/02 07:00:16;;;;;;;0.52;0.52;;;;;;;2.02;100.00;101258.84;4889677;29;20139;-71
2024/02/02 07:02:43;;;;;;;1.88;1.77;;;;;;;2.10;100.00;101268.75;4892023;29;20049;-70
2024/02/02 07:05:12;;;;;;;0.50;0.50;;;;;;;2.67;100.00;101393.19;4871578;29;20063;-71
2024/02/02 07:07:37;;;;;;;5.47;5.15;;;;;;;2.24;100.00;101300.47;4889947;29;20071;-72
2024/02/02 07:10:04;;;;;;;7.60;7.18;;;;;;;2.88;100.00;101388.16;4891027;29;20832;-71
2024/02/02 07:12:53;;;;;;;0.57;0.57;;;;;;;2.77;100.00;101402.31;4891348;29;20076;-72
2024/02/02 07:15:20;;;;;;;1.17;1.17;;;;;;;2.89;100.00;101407.16;4884462;29;20056;-74
2024/02/02 07:17:46;;;;;;;1.80;1.58;;;;;;;2.15;100.00;101305.22;4887378;29;20049;-71
2024/02/02 07:20:32;;;;;;;2.35;2.25;;;;;;;2.70;100.00;101406.28;4891755;29;20060;-71
2024/02/02 07:23:00;;;;;;;8.25;7.65;;;;;;;2.53;100.00;101386.47;4887070;29;20131;-72
2024/02/02 07:25:26;;;;;;;6.57;6.18;;;;;;;2.35;100.00;101368.34;4890167;29;20044;-72
2024/02/02 07:27:58;;;;;;;8.02;7.32;;;;;;;2.17;100.00;101338.94;4889168;29;20081;-70
2024/02/02 07:30:32;;;;;;;1.10;1.00;;;;;;;2.28;100.00;101328.28;4881402;29;20049;-70
2024/02/02 07:32:59;;;;;;;1.35;1.25;;;;;;;2.69;100.00;101409.72;4882462;29;20072;-71
2024/02/02 07:35:37;;;;;;;1.50;1.40;;;;;;;2.20;100.00;101320.97;4915851;29;20072;-73
2024/02/02 07:38:05;;;;;;;1.75;1.65;;;;;;;2.89;100.00;101415.81;4890011;29;20095;-71
2024/02/02 07:40:30;;;;;;;0.77;0.77;;;;;;;2.84;100.00;101427.69;4891264;29;20040;-74
2024/02/02 07:42:58;;;;;;;0.47;0.47;;;;;;;2.58;100.00;101361.66;4891543;29;20047;-72
2024/02/02 07:45:24;;;;;;;0.70;0.70;;;;;;;2.31;100.00;101338.78;4873982;29;20056;-71
2024/02/02 07:47:51;;;;;;;0.30;0.30;;;;;;;2.44;100.00;101326.47;4889773;29;20045;-73
2024/02/02 07:50:17;;;;;;;2.30;2.20;;;;;;;3.03;100.00;101411.28;4888274;29;20045;-73
2024/02/02 07:52:42;;;;;;;7.28;6.95;;;;;;;3.20;100.00;101426.75;4872476;29;20520;-70
2024/02/02 07:55:08;;;;;;;0.68;0.68;;;;;;;2.70;100.00;101344.09;4891693;29;20052;-69
2024/02/02 07:57:33;;;;;;;4.40;4.13;;;;;;;2.93;100.00;101422.94;4890920;29;20068;-71
2024/02/02 07:59:59;;;;;;;0.65;0.65;;;;;;;2.70;100.00;101398.53;4905045;29;20072;-73
2024/02/02 08:02:25;;;;;;;3.25;1.10;;;;;;;3.01;100.00;101427.59;4889476;29;20072;-72
2024/02/02 08:04:50;;;;;;;1.42;1.38;;;;;;;2.77;100.00;101386.75;4889629;29;20159;-70
2024/02/02 08:07:16;;;;;;;0.55;0.55;;;;;;;2.85;100.00;101385.38;4890819;29;20324;-71
2024/02/02 08:09:41;;;;;;;0.30;0.30;;;;;;;2.62;100.00;101362.69;4873234;29;20683;-70
2024/02/02 08:12:07;;;;;;;0.30;0.30;;;;;;;2.77;100.00;101440.28;4891138;29;20052;-70
2024/02/02 08:14:33;;;;;;;2.58;2.47;;;;;;;2.31;100.00;101364.69;4887503;29;20048;-71
2024/02/02 08:16:59;;;;;;;9.43;6.95;;;;;;;3.13;100.00;101459.28;4888860;29;20049;-73
2024/02/02 08:19:24;;;;;;;0.40;0.40;;;;;;;2.92;100.00;101449.66;4886984;29;20043;-71
2024/02/02 08:21:52;;;;;;;3.58;3.38;;;;;;;3.12;100.00;101479.13;4887258;29;20055;-73
2024/02/02 08:24:18;;;;;;;1.88;1.77;;;;;;;3.26;100.00;101484.09;4888067;29;20163;-71
2024/02/02 08:26:43;;;;;;;6.35;5.90;;;;;;;3.37;100.00;101478.59;4889278;29;20113;-70
2024/02/02 08:29:09;;;;;;;8.95;6.70;;;;;;;3.00;100.00;101412.84;4887861;29;20060;-73
2024/02/02 08:31:34;;;;;;;0.45;0.45;;;;;;;3.13;100.00;101425.56;4888143;29;20067;-72
2024/02/02 08:34:00;;;;;;;0.93;0.93;;;;;;;3.46;100.00;101480.69;4886951;29;20041;-72
2024/02/02 08:36:26;;;;;;;1.52;1.48;;;;;;;3.44;100.00;101486.63;4888579;29;20079;-71
2024/02/02 08:38:51;;;;;;;2.08;1.95;;;;;;;3.17;100.00;101459.50;4889096;29;20040;-72
2024/02/02 08:41:17;;;;;;;0.43;0.43;;;;;;;3.41;100.00;101470.94;4887488;29;20049;-72
2024/02/02 08:43:45;;;;;;;0.90;0.90;;;;;;;3.33;100.00;101450.72;4884975;29;20033;-71
2024/02/02 08:46:15;;;;;;;0.68;0.68;;;;;;;3.37;100.00;101447.47;4904523;29;20033;-70
2024/02/02 08:48:46;;;;;;;1.67;1.58;;;;;;;3.60;100.00;101465.75;4890232;29;20049;-71
2024/02/02 08:51:23;;;;;;;1.33;1.23;;;;;;;3.75;100.00;101488.94;4885826;29;20095;-71
2024/02/02 08:54:03;;;;;;;0.45;0.45;;;;;;;3.76;100.00;101493.31;4883205;29;20056;-71
2024/02/02 08:56:29;;;;;;;2.25;1.65;;;;;;;3.83;100.00;101497.94;4889935;29;20116;-71
2024/02/02 08:58:55;;;;;;;4.55;4.25;;;;;;;3.44;100.00;101448.63;4875028;29;20409;-71
2024/02/02 09:01:41;;;;;;;0.88;0.88;;;;;;;3.89;100.00;101503.44;4889639;29;20032;-71
2024/02/02 09:04:43;;;;;;;0.32;0.32;;;;;;;3.54;100.00;101426.59;4889032;29;20103;-71
2024/02/02 09:07:13;;;;;;;1.13;1.05;;;;;;;3.91;100.00;101508.66;4881789;29;20136;-71
2024/02/02 09:09:40;;;;;;;3.63;3.42;;;;;;;3.22;100.00;101407.84;4873937;29;20047;-71
2024/02/02 09:12:05;;;;;;;0.35;0.35;;;;;;;3.95;100.00;101495.00;4889564;29;20047;-71
2024/02/02 09:14:31;;;;;;;2.38;2.28;;;;;;;4.05;100.00;101511.88;4890399;29;20044;-72
2024/02/02 09:16:57;;;;;;;0.40;0.40;;;;;;;4.05;100.00;101511.88;4890218;29;20067;-72
2024/02/02 09:19:36;;;;;;;0.43;0.43;;;;;;;4.13;100.00;101513.13;4887001;29;20532;-73
2024/02/02 09:22:06;;;;;;;15.48;14.70;;;;;;;4.05;100.00;101510.19;4887581;29;20024;-71
2024/02/02 09:24:39;;;;;;;0.40;0.40;;;;;;;4.12;100.00;101513.91;4886208;29;20127;-71
2024/02/02 09:27:07;;;;;;;;;;;;;;;4.19;100.00;101503.91;4889306;29;20051;-71
2024/02/02 09:29:33;;;;;;;0.80;0.80;;;;;;;4.11;100.00;101499.19;4889053;29;20572;-72
2024/02/02 09:31:59;;;;;;;4.15;3.88;;;;;;;3.75;100.00;101419.75;4874122;29;20053;-70
2024/02/02 09:34:25;;;;;;;3.47;3.20;;;;;;;4.11;100.00;101483.59;4890179;29;20040;-71
2024/02/02 09:36:53;;;;;;;5.35;4.95;;;;;;;4.18;100.00;101494.31;4892176;29;20027;-72
2024/02/02 09:39:40;;;;;;;2.70;2.60;;;;;;;4.21;100.00;101497.06;4872074;29;20394;-73
2024/02/02 09:42:14;;;;;;;0.82;0.82;;;;;;;4.30;100.00;101493.94;4874817;29;20147;-71
2024/02/02 09:44:56;;;;;;;2.55;2.42;;;;;;;4.00;100.00;101405.22;4893238;29;20045;-70
2024/02/02 09:47:45;;;;;;;1.88;1.77;;;;;;;4.52;100.00;101485.38;4891363;29;20060;-71
2024/02/02 09:50:28;;;;;;;3.10;2.80;;;;;;;4.60;100.00;101489.16;4893417;29;20057;-72
2024/02/02 09:53:26;;;;;;;0.40;0.40;;;;;;;4.36;100.00;101425.78;4890452;29;20223;-73
2024/02/02 09:55:58;;;;;;;1.83;1.73;;;;;;;4.77;100.00;101495.03;4888369;29;20044;-72
2024/02/02 09:58:51;;;;;;;1.25;1.17;;;;;;;4.79;100.00;101490.78;4884661;29;20151;-72
2024/02/02 10:01:34;;;;;;;0.68;0.68;;;;;;;4.82;100.00;101490.94;4892954;29;20029;-72
2024/02/02 10:04:09;;;;;;;;;;;;;;;4.85;100.00;101482.38;4892579;29;20043;-72
2024/02/02 10:06:42;;;;;;;1.05;1.00;;;;;;;4.97;100.00;101481.97;4883618;29;19923;-70
2024/02/02 10:09:26;;;;;;;6.80;6.20;;;;;;;5.13;100.00;101476.56;4885688;29;20057;-70
2024/02/02 10:12:10;;;;;;;1.10;1.10;;;;;;;5.08;100.00;101486.78;4886873;29;20617;-70
2024/02/02 10:15:07;;;;;;;2.15;2.05;;;;;;;4.90;100.00;101430.56;4892682;29;20045;-70
2024/02/02 10:18:04;;;;;;;1.77;1.67;;;;;;;5.21;100.00;101477.72;4885628;29;20060;-71
2024/02/02 10:20:53;;;;;;;16.20;3.50;;;;;;;5.22;100.00;101469.13;4891392;29;20055;-70
2024/02/02 10:23:46;;;;;;;0.85;0.85;;;;;;;4.69;100.00;101382.06;4889501;29;20081;-73
2024/02/02 10:26:35;;;;;;;0.43;0.43;;;;;;;5.11;100.00;101466.94;4890434;29;20052;-72
2024/02/02 10:29:06;;;;;;;0.52;0.52;;;;;;;4.87;100.00;101475.53;4891031;29;20502;-72
2024/02/02 10:31:53;;;;;;;0.52;0.52;;;;;;;5.05;100.00;101470.16;4892420;29;20120;-71
2024/02/02 10:34:38;;;;;;;1.95;1.85;;;;;;;5.33;100.00;101464.31;4890635;29;20136;-71
2024/02/02 10:37:22;;;;;;;0.40;0.40;;;;;;;4.93;100.00;101382.13;4891276;29;20036;-71
2024/02/02 10:39:57;;;;;;;2.35;2.15;;;;;;;5.39;100.00;101466.28;4892636;29;20037;-71
2024/02/02 10:42:47;;;;;;;1.73;1.65;;;;;;;5.46;100.00;101457.88;4891500;29;20045;-70
2024/02/02 10:45:41;;;;;;;11.30;10.45;;;;;;;5.35;100.00;101453.97;4892512;29;20900;-71
2024/02/02 10:48:26;;;;;;;1.00;0.98;;;;;;;5.34;100.00;101457.38;4884290;29;20056;-70
2024/02/02 10:51:25;;;;;;;1.75;1.65;;;;;;;5.40;100.00;101458.50;4892194;29;20045;-71
2024/02/02 10:54:00;;;;;;;1.73;1.52;;;;;;;5.33;100.00;101456.50;4891012;29;20560;-71
2024/02/02 10:56:29;;;;;;;5.57;5.28;;;;;;;5.18;100.00;101458.53;4872884;29;20056;-71
2024/02/02 10:59:04;;;;;;;1.30;1.23;;;;;;;5.33;100.00;101456.50;4885563;29;20071;-73
2024/02/02 11:01:57;;;;;;;0.68;0.60;;;;;;;5.32;100.00;101459.94;4890776;29;20040;-73
2024/02/02 11:04:38;;;;;;;3.35;3.15;;;;;;;5.37;100.00;101455.78;4888686;29;20044;-70
2024/02/02 11:07:13;;;;;;;0.55;0.55;;;;;;;5.42;100.00;101458.56;4892513;29;20143;-71
2024/02/02 11:09:52;;;;;;;1.42;1.35;;;;;;;5.46;100.00;101453.53;4910677;29;20131;-73
2024/02/02 11:12:51;;;;;;;0.75;0.75;;;;;;;5.39;100.00;101433.31;4894071;29;20547;-71
2024/02/02 11:15:35;;;;;;;1.13;1.02;;;;;;;5.50;100.00;101446.72;4895087;29;20142;-71
2024/02/02 11:18:20;;;;;;;;;;;;;;;5.56;100.00;101440.88;4895549;29;20048;-74
2024/02/02 11:20:57;;;;;;;1.55;1.40;;;;;;;5.64;100.00;101436.81;4894020;29;20293;-71
2024/02/02 11:23:39;;;;;;;2.88;2.65;;;;;;;5.06;100.00;101354.88;4888402;29;20061;-70
2024/02/02 11:26:34;;;;;;;3.83;3.60;;;;;;;5.62;100.00;101443.69;4891264;29;20051;-71
2024/02/02 11:29:22;;;;;;;1.80;1.70;;;;;;;5.43;100.00;101434.31;4890261;29;20085;-70
2024/02/02 11:31:59;;;;;;;0.52;0.52;;;;;;;5.46;100.00;101457.88;4882965;29;20056;-71
2024/02/02 11:35:15;;;;;;;1.73;1.63;;;;;;;5.58;100.00;101457.44;4882620;29;20032;-71